sensor_id;sensor_type;location;lat;lon;timestamp;pressure;altitude;pressure_sealevel;temperature;humidity
64872;BME280;51351;51.450;6.614;2023-11-18T00:01:31;102321.34;;;4.01;90.82
64872;BME280;51351;51.450;6.614;2023-11-18T00:04:00;102314.56;;;3.99;90.86
64872;BME280;51351;51.450;6.614;2023-11-18T00:06:26;102321.47;;;3.98;90.96
64872;BME280;51351;51.450;6.614;2023-11-18T00:08:58;102321.47;;;3.98;91.03
64872;BME280;51351;51.450;6.614;2023-11-18T00:11:26;102318.94;;;3.97;91.06
64872;BME280;51351;51.450;6.614;2023-11-18T00:14:00;102323.28;;;3.96;91.38
64872;BME280;51351;51.450;6.614;2023-11-18T00:16:32;102313.69;;;3.98;91.38
64872;BME280;51351;51.450;6.614;2023-11-18T00:19:00;102309.31;;;4.00;91.44
64872;BME280;51351;51.450;6.614;2023-11-18T00:21:27;102304.97;;;4.02;91.51
64872;BME280;51351;51.450;6.614;2023-11-18T00:23:53;102308.38;;;4.03;91.41
64872;BME280;51351;51.450;6.614;2023-11-18T00:26:22;102311.75;;;4.05;91.48
64872;BME280;51351;51.450;6.614;2023-11-18T00:28:55;102309.06;;;4.08;91.29
64872;BME280;51351;51.450;6.614;2023-11-18T00:31:22;102314.09;;;4.11;91.40
64872;BME280;51351;51.450;6.614;2023-11-18T00:33:48;102317.41;;;4.14;91.32
64872;BME280;51351;51.450;6.614;2023-11-18T00:36:16;102307.91;;;4.15;91.31
64872;BME280;51351;51.450;6.614;2023-11-18T00:38:43;102299.31;;;4.14;91.44
64872;BME280;51351;51.450;6.614;2023-11-18T00:41:10;102306.25;;;4.14;91.28
64872;BME280;51351;51.450;6.614;2023-11-18T00:43:36;102304.53;;;4.13;91.48
64872;BME280;51351;51.450;6.614;2023-11-18T00:46:08;102308.94;;;4.11;91.51
64872;BME280;51351;51.450;6.614;2023-11-18T00:48:38;102298.59;;;4.11;91.32
64872;BME280;51351;51.450;6.614;2023-11-18T00:51:06;102305.56;;;4.09;91.34
64872;BME280;51351;51.450;6.614;2023-11-18T00:53:31;102297.00;;;4.07;91.41
64872;BME280;51351;51.450;6.614;2023-11-18T00:55:57;102295.38;;;4.04;91.33
64872;BME280;51351;51.450;6.614;2023-11-18T00:58:24;102304.91;;;4.04;91.55
64872;BME280;51351;51.450;6.614;2023-11-18T01:00:51;102298.09;;;4.01;91.46
64872;BME280;51351;51.450;6.614;2023-11-18T01:03:20;102292.84;;;4.03;91.57
64872;BME280;51351;51.450;6.614;2023-11-18T01:05:46;102292.09;;;4.01;91.64
64872;BME280;51351;51.450;6.614;2023-11-18T01:08:12;102287.75;;;4.01;91.63
64872;BME280;51351;51.450;6.614;2023-11-18T01:10:41;102293.88;;;3.99;91.73
64872;BME280;51351;51.450;6.614;2023-11-18T01:13:07;102292.91;;;4.01;91.87
64872;BME280;51351;51.450;6.614;2023-11-18T01:15:34;102297.25;;;4.01;91.66
64872;BME280;51351;51.450;6.614;2023-11-18T01:18:10;102299.00;;;4.00;91.89
64872;BME280;51351;51.450;6.614;2023-11-18T01:20:38;102305.06;;;3.99;91.75
64872;BME280;51351;51.450;6.614;2023-11-18T01:23:04;102313.69;;;3.98;91.83
64872;BME280;51351;51.450;6.614;2023-11-18T01:25:30;102321.41;;;4.00;91.99
64872;BME280;51351;51.450;6.614;2023-11-18T01:28:11;102326.47;;;4.03;91.86
64872;BME280;51351;51.450;6.614;2023-11-18T01:30:41;102331.63;;;4.03;92.02
64872;BME280;51351;51.450;6.614;2023-11-18T01:33:11;102326.34;;;4.06;92.15
64872;BME280;51351;51.450;6.614;2023-11-18T01:35:43;102336.59;;;4.09;92.08
64872;BME280;51351;51.450;6.614;2023-11-18T01:38:19;102338.19;;;4.11;92.11
64872;BME280;51351;51.450;6.614;2023-11-18T01:40:54;102326.03;;;4.15;92.05
64872;BME280;51351;51.450;6.614;2023-11-18T01:43:21;102323.31;;;4.18;92.09
64872;BME280;51351;51.450;6.614;2023-11-18T01:45:47;102319.88;;;4.17;92.20
64872;BME280;51351;51.450;6.614;2023-11-18T01:48:14;102329.38;;;4.17;92.05
64872;BME280;51351;51.450;6.614;2023-11-18T01:50:41;102320.84;;;4.15;91.89
64872;BME280;51351;51.450;6.614;2023-11-18T01:53:10;102321.66;;;4.15;91.92
64872;BME280;51351;51.450;6.614;2023-11-18T01:55:38;102320.78;;;4.16;91.83
64872;BME280;51351;51.450;6.614;2023-11-18T01:58:05;102331.06;;;4.18;92.06
64872;BME280;51351;51.450;6.614;2023-11-18T02:00:59;102324.94;;;4.20;92.09
64872;BME280;51351;51.450;6.614;2023-11-18T02:03:28;102324.09;;;4.20;92.18
64872;BME280;51351;51.450;6.614;2023-11-18T02:05:56;102324.94;;;4.20;92.20
64872;BME280;51351;51.450;6.614;2023-11-18T02:08:38;102320.72;;;4.18;92.17
64872;BME280;51351;51.450;6.614;2023-11-18T02:13:58;102313.69;;;4.21;92.21
64872;BME280;51351;51.450;6.614;2023-11-18T02:16:38;102308.44;;;4.23;92.19
64872;BME280;51351;51.450;6.614;2023-11-18T02:19:12;102312.75;;;4.24;92.09
64872;BME280;51351;51.450;6.614;2023-11-18T02:21:43;102310.16;;;4.24;92.36
64872;BME280;51351;51.450;6.614;2023-11-18T02:24:24;102297.28;;;4.22;92.38
64872;BME280;51351;51.450;6.614;2023-11-18T02:27:05;102284.31;;;4.24;92.19
64872;BME280;51351;51.450;6.614;2023-11-18T02:29:41;102292.88;;;4.24;92.19
64872;BME280;51351;51.450;6.614;2023-11-18T02:32:42;102293.63;;;4.28;92.41
64872;BME280;51351;51.450;6.614;2023-11-18T02:35:36;102294.44;;;4.28;92.32
64872;BME280;51351;51.450;6.614;2023-11-18T02:38:10;102291.78;;;4.30;92.39
64872;BME280;51351;51.450;6.614;2023-11-18T02:40:41;102294.38;;;4.30;92.15
64872;BME280;51351;51.450;6.614;2023-11-18T02:43:09;102296.97;;;4.30;92.21
64872;BME280;51351;51.450;6.614;2023-11-18T02:45:36;102298.69;;;4.31;92.66
64872;BME280;51351;51.450;6.614;2023-11-18T02:48:09;102298.69;;;4.31;92.54
64872;BME280;51351;51.450;6.614;2023-11-18T02:51:01;102310.69;;;4.32;92.60
64872;BME280;51351;51.450;6.614;2023-11-18T02:53:30;102319.31;;;4.32;92.29
64872;BME280;51351;51.450;6.614;2023-11-18T02:55:57;102318.47;;;4.32;92.34
64872;BME280;51351;51.450;6.614;2023-11-18T02:58:31;102312.44;;;4.31;92.47
64872;BME280;51351;51.450;6.614;2023-11-18T03:00:58;102310.69;;;4.32;92.64
64872;BME280;51351;51.450;6.614;2023-11-18T03:03:25;102301.25;;;4.31;92.26
64872;BME280;51351;51.450;6.614;2023-11-18T03:05:51;102296.84;;;4.33;92.40
64872;BME280;51351;51.450;6.614;2023-11-18T03:08:16;102295.06;;;4.35;92.32
64872;BME280;51351;51.450;6.614;2023-11-18T03:10:42;102294.16;;;4.36;92.55
64872;BME280;51351;51.450;6.614;2023-11-18T03:13:10;102287.25;;;4.36;92.52
64872;BME280;51351;51.450;6.614;2023-11-18T03:15:40;102288.91;;;4.37;92.82
64872;BME280;51351;51.450;6.614;2023-11-18T03:18:19;102272.44;;;4.40;92.57
64872;BME280;51351;51.450;6.614;2023-11-18T03:20:45;102264.50;;;4.44;92.65
64872;BME280;51351;51.450;6.614;2023-11-18T03:23:11;102263.63;;;4.45;92.45
64872;BME280;51351;51.450;6.614;2023-11-18T03:25:37;102255.63;;;4.50;92.76
64872;BME280;51351;51.450;6.614;2023-11-18T03:28:04;102247.81;;;4.51;92.56
64872;BME280;51351;51.450;6.614;2023-11-18T03:30:31;102252.16;;;4.51;92.51
64872;BME280;51351;51.450;6.614;2023-11-18T03:32:59;102262.47;;;4.52;92.43
64872;BME280;51351;51.450;6.614;2023-11-18T03:35:25;102263.22;;;4.54;92.68
64872;BME280;51351;51.450;6.614;2023-11-18T03:37:51;102264.00;;;4.56;92.41
64872;BME280;51351;51.450;6.614;2023-11-18T03:40:18;102266.53;;;4.58;92.37
64872;BME280;51351;51.450;6.614;2023-11-18T03:42:44;102264.81;;;4.58;92.64
64872;BME280;51351;51.450;6.614;2023-11-18T03:45:11;102270.81;;;4.59;92.69
64872;BME280;51351;51.450;6.614;2023-11-18T03:47:39;102277.59;;;4.61;92.48
64872;BME280;51351;51.450;6.614;2023-11-18T03:50:06;102288.84;;;4.60;92.41
64872;BME280;51351;51.450;6.614;2023-11-18T03:52:49;102291.44;;;4.60;92.42
64872;BME280;51351;51.450;6.614;2023-11-18T03:55:17;102290.53;;;4.61;92.66
64872;BME280;51351;51.450;6.614;2023-11-18T03:57:44;102292.28;;;4.61;92.56
64872;BME280;51351;51.450;6.614;2023-11-18T04:00:11;102289.72;;;4.61;92.45
64872;BME280;51351;51.450;6.614;2023-11-18T04:02:38;102280.19;;;4.61;92.47
64872;BME280;51351;51.450;6.614;2023-11-18T04:05:07;102278.56;;;4.59;92.49
64872;BME280;51351;51.450;6.614;2023-11-18T04:07:34;102270.84;;;4.57;92.35
64872;BME280;51351;51.450;6.614;2023-11-18T04:10:00;102268.28;;;4.57;92.46
64872;BME280;51351;51.450;6.614;2023-11-18T04:12:26;102267.44;;;4.57;92.46
64872;BME280;51351;51.450;6.614;2023-11-18T04:14:52;102273.50;;;4.56;92.49
64872;BME280;51351;51.450;6.614;2023-11-18T04:17:22;102259.63;;;4.58;92.41
64872;BME280;51351;51.450;6.614;2023-11-18T04:19:49;102262.28;;;4.57;92.46
64872;BME280;51351;51.450;6.614;2023-11-18T04:22:33;102262.28;;;4.57;92.81
64872;BME280;51351;51.450;6.614;2023-11-18T04:24:58;102250.16;;;4.57;92.59
64872;BME280;51351;51.450;6.614;2023-11-18T04:27:25;102244.94;;;4.59;92.65
64872;BME280;51351;51.450;6.614;2023-11-18T04:29:51;102235.38;;;4.61;92.77
64872;BME280;51351;51.450;6.614;2023-11-18T04:32:18;102234.44;;;4.62;92.58
64872;BME280;51351;51.450;6.614;2023-11-18T04:34:45;102222.44;;;4.61;92.70
64872;BME280;51351;51.450;6.614;2023-11-18T04:37:11;102219.72;;;4.64;92.44
64872;BME280;51351;51.450;6.614;2023-11-18T04:39:37;102204.19;;;4.64;92.58
64872;BME280;51351;51.450;6.614;2023-11-18T04:42:03;102206.78;;;4.64;92.38
64872;BME280;51351;51.450;6.614;2023-11-18T04:44:32;102203.41;;;4.62;92.70
64872;BME280;51351;51.450;6.614;2023-11-18T04:46:58;102207.72;;;4.61;92.33
64872;BME280;51351;51.450;6.614;2023-11-18T04:49:26;102209.38;;;4.64;92.42
64872;BME280;51351;51.450;6.614;2023-11-18T04:52:36;102204.13;;;4.65;92.36
64872;BME280;51351;51.450;6.614;2023-11-18T04:55:03;102203.47;;;4.60;92.44
64872;BME280;51351;51.450;6.614;2023-11-18T04:57:33;102199.06;;;4.62;92.42
64872;BME280;51351;51.450;6.614;2023-11-18T05:00:06;102189.53;;;4.63;92.32
64872;BME280;51351;51.450;6.614;2023-11-18T05:02:47;102190.41;;;4.63;92.32
64872;BME280;51351;51.450;6.614;2023-11-18T05:05:21;102180.97;;;4.62;92.41
64872;BME280;51351;51.450;6.614;2023-11-18T05:07:47;102168.22;;;4.58;92.37
64872;BME280;51351;51.450;6.614;2023-11-18T05:10:14;102168.34;;;4.55;92.18
64872;BME280;51351;51.450;6.614;2023-11-18T05:12:42;102165.81;;;4.53;92.62
64872;BME280;51351;51.450;6.614;2023-11-18T05:15:21;102166.72;;;4.52;92.57
64872;BME280;51351;51.450;6.614;2023-11-18T05:17:55;102159.91;;;4.50;92.39
64872;BME280;51351;51.450;6.614;2023-11-18T05:20:25;102152.09;;;4.51;92.18
64872;BME280;51351;51.450;6.614;2023-11-18T05:23:00;102153.06;;;4.49;92.55
64872;BME280;51351;51.450;6.614;2023-11-18T05:25:27;102150.41;;;4.50;92.55
64872;BME280;51351;51.450;6.614;2023-11-18T05:27:52;102159.03;;;4.51;92.40
64872;BME280;51351;51.450;6.614;2023-11-18T05:30:18;102160.75;;;4.50;92.38
64872;BME280;51351;51.450;6.614;2023-11-18T05:32:43;102157.25;;;4.51;92.55
64872;BME280;51351;51.450;6.614;2023-11-18T05:35:09;102163.22;;;4.53;92.43
64872;BME280;51351;51.450;6.614;2023-11-18T05:37:38;102170.06;;;4.54;92.50
64872;BME280;51351;51.450;6.614;2023-11-18T05:40:07;102158.84;;;4.55;92.54
64872;BME280;51351;51.450;6.614;2023-11-18T05:42:36;102158.84;;;4.55;92.52
64872;BME280;51351;51.450;6.614;2023-11-18T05:45:05;102169.94;;;4.57;92.14
64872;BME280;51351;51.450;6.614;2023-11-18T05:47:45;102164.66;;;4.60;92.55
64872;BME280;51351;51.450;6.614;2023-11-18T05:50:16;102159.47;;;4.60;92.55
64872;BME280;51351;51.450;6.614;2023-11-18T05:52:42;102151.66;;;4.62;92.59
64872;BME280;51351;51.450;6.614;2023-11-18T05:55:07;102146.41;;;4.63;92.24
64872;BME280;51351;51.450;6.614;2023-11-18T05:57:36;102141.28;;;4.62;92.38
64872;BME280;51351;51.450;6.614;2023-11-18T06:00:04;102143.81;;;4.63;92.29
64872;BME280;51351;51.450;6.614;2023-11-18T06:02:37;102140.31;;;4.64;92.15
64872;BME280;51351;51.450;6.614;2023-11-18T06:05:08;102145.56;;;4.63;92.31
64872;BME280;51351;51.450;6.614;2023-11-18T06:07:42;102136.13;;;4.62;92.36
64872;BME280;51351;51.450;6.614;2023-11-18T06:10:14;102138.66;;;4.63;92.38
64872;BME280;51351;51.450;6.614;2023-11-18T06:12:51;102131.78;;;4.62;92.25
64872;BME280;51351;51.450;6.614;2023-11-18T06:15:21;102119.69;;;4.63;92.32
64872;BME280;51351;51.450;6.614;2023-11-18T06:17:50;102111.84;;;4.64;92.15
64872;BME280;51351;51.450;6.614;2023-11-18T06:20:17;102115.41;;;4.62;92.23
64872;BME280;51351;51.450;6.614;2023-11-18T06:25:59;102108.50;;;4.62;92.01
64872;BME280;51351;51.450;6.614;2023-11-18T06:28:27;102117.94;;;4.63;92.16
64872;BME280;51351;51.450;6.614;2023-11-18T06:30:56;102122.25;;;4.63;91.93
64872;BME280;51351;51.450;6.614;2023-11-18T06:33:21;102117.03;;;4.64;92.10
64872;BME280;51351;51.450;6.614;2023-11-18T06:35:48;102112.75;;;4.63;91.92
64872;BME280;51351;51.450;6.614;2023-11-18T06:38:14;102111.84;;;4.64;92.21
64872;BME280;51351;51.450;6.614;2023-11-18T06:40:44;102109.13;;;4.67;92.05
64872;BME280;51351;51.450;6.614;2023-11-18T06:43:11;102110.03;;;4.66;91.82
64872;BME280;51351;51.450;6.614;2023-11-18T06:45:42;102109.19;;;4.66;92.21
64872;BME280;51351;51.450;6.614;2023-11-18T06:48:09;102119.41;;;4.69;92.16
64872;BME280;51351;51.450;6.614;2023-11-18T06:50:36;102122.78;;;4.71;91.99
64872;BME280;51351;51.450;6.614;2023-11-18T06:53:22;102127.00;;;4.73;92.12
64872;BME280;51351;51.450;6.614;2023-11-18T06:55:47;102134.63;;;4.76;91.89
64872;BME280;51351;51.450;6.614;2023-11-18T06:58:17;102138.88;;;4.77;92.11
64872;BME280;51351;51.450;6.614;2023-11-18T07:00:43;102141.41;;;4.79;91.96
64872;BME280;51351;51.450;6.614;2023-11-18T07:03:10;102131.00;;;4.80;92.11
64872;BME280;51351;51.450;6.614;2023-11-18T07:05:47;102134.31;;;4.84;91.89
64872;BME280;51351;51.450;6.614;2023-11-18T07:08:17;102141.28;;;4.82;92.13
64872;BME280;51351;51.450;6.614;2023-11-18T07:10:43;102142.88;;;4.84;92.09
64872;BME280;51351;51.450;6.614;2023-11-18T07:13:13;102139.28;;;4.88;91.74
64872;BME280;51351;51.450;6.614;2023-11-18T07:15:50;102144.41;;;4.90;91.88
64872;BME280;51351;51.450;6.614;2023-11-18T07:18:17;102131.34;;;4.91;91.94
64872;BME280;51351;51.450;6.614;2023-11-18T07:20:43;102128.56;;;4.96;91.95
64872;BME280;51351;51.450;6.614;2023-11-18T07:23:11;102129.41;;;4.96;91.87
64872;BME280;51351;51.450;6.614;2023-11-18T07:25:40;102130.28;;;4.97;91.89
64872;BME280;51351;51.450;6.614;2023-11-18T07:28:08;102132.72;;;5.00;92.03
64872;BME280;51351;51.450;6.614;2023-11-18T07:30:37;102132.56;;;5.03;91.90
64872;BME280;51351;51.450;6.614;2023-11-18T07:33:06;102126.38;;;5.07;91.78
64872;BME280;51351;51.450;6.614;2023-11-18T07:35:36;102121.88;;;5.11;91.72
64872;BME280;51351;51.450;6.614;2023-11-18T07:38:09;102121.81;;;5.12;91.59
64872;BME280;51351;51.450;6.614;2023-11-18T07:40:46;102117.41;;;5.14;91.82
64872;BME280;51351;51.450;6.614;2023-11-18T07:43:16;102104.31;;;5.17;91.94
64872;BME280;51351;51.450;6.614;2023-11-18T07:46:09;102095.50;;;5.21;91.56
64872;BME280;51351;51.450;6.614;2023-11-18T07:48:39;102104.13;;;5.22;91.74
64872;BME280;51351;51.450;6.614;2023-11-18T07:51:05;102105.06;;;5.19;91.10
64872;BME280;51351;51.450;6.614;2023-11-18T07:53:45;102100.34;;;5.29;91.43
64872;BME280;51351;51.450;6.614;2023-11-18T07:56:14;102089.91;;;5.30;90.99
64872;BME280;51351;51.450;6.614;2023-11-18T07:58:46;102092.38;;;5.33;90.86
64872;BME280;51351;51.450;6.614;2023-11-18T08:01:21;102099.97;;;5.36;91.04
64872;BME280;51351;51.450;6.614;2023-11-18T08:03:49;102098.09;;;5.40;90.87
64872;BME280;51351;51.450;6.614;2023-11-18T08:06:20;102103.97;;;5.43;91.25
64872;BME280;51351;51.450;6.614;2023-11-18T08:08:47;102120.06;;;5.50;91.42
64872;BME280;51351;51.450;6.614;2023-11-18T08:11:15;102113.91;;;5.52;91.16
64872;BME280;51351;51.450;6.614;2023-11-18T08:13:42;102112.09;;;5.54;90.89
64872;BME280;51351;51.450;6.614;2023-11-18T08:16:09;102113.63;;;5.58;91.01
64872;BME280;51351;51.450;6.614;2023-11-18T08:18:49;102120.25;;;5.64;91.40
64872;BME280;51351;51.450;6.614;2023-11-18T08:21:19;102116.72;;;5.66;90.89
64872;BME280;51351;51.450;6.614;2023-11-18T08:24:04;102099.25;;;5.70;91.05
64872;BME280;51351;51.450;6.614;2023-11-18T08:26:43;102101.84;;;5.70;90.33
64872;BME280;51351;51.450;6.614;2023-11-18T08:29:14;102116.25;;;5.75;90.67
64872;BME280;51351;51.450;6.614;2023-11-18T08:31:55;102115.94;;;5.83;90.88
64872;BME280;51351;51.450;6.614;2023-11-18T08:34:26;102115.72;;;5.87;90.70
64872;BME280;51351;51.450;6.614;2023-11-18T08:37:01;102106.88;;;5.91;90.93
64872;BME280;51351;51.450;6.614;2023-11-18T08:39:29;102104.91;;;5.96;90.78
64872;BME280;51351;51.450;6.614;2023-11-18T08:42:03;102107.44;;;5.98;90.64
64872;BME280;51351;51.450;6.614;2023-11-18T08:44:43;102102.06;;;6.01;90.15
64872;BME280;51351;51.450;6.614;2023-11-18T08:47:24;102107.88;;;6.06;90.64
64872;BME280;51351;51.450;6.614;2023-11-18T08:50:10;102108.50;;;6.11;90.55
64872;BME280;51351;51.450;6.614;2023-11-18T08:52:39;102095.53;;;6.11;90.53
64872;BME280;51351;51.450;6.614;2023-11-18T08:55:19;102095.22;;;6.17;90.15
64872;BME280;51351;51.450;6.614;2023-11-18T08:58:25;102095.22;;;6.17;90.22
64872;BME280;51351;51.450;6.614;2023-11-18T09:01:02;102088.97;;;6.21;90.18
64872;BME280;51351;51.450;6.614;2023-11-18T09:03:57;102098.28;;;6.25;89.95
64872;BME280;51351;51.450;6.614;2023-11-18T09:06:27;102081.78;;;6.26;89.79
64872;BME280;51351;51.450;6.614;2023-11-18T09:08:58;102070.81;;;6.21;89.58
64872;BME280;51351;51.450;6.614;2023-11-18T09:11:50;102058.75;;;6.20;89.26
64872;BME280;51351;51.450;6.614;2023-11-18T09:14:26;102055.16;;;6.22;89.00
64872;BME280;51351;51.450;6.614;2023-11-18T09:17:03;102044.22;;;6.33;90.22
64872;BME280;51351;51.450;6.614;2023-11-18T09:19:38;102037.81;;;6.40;89.77
64872;BME280;51351;51.450;6.614;2023-11-18T09:22:06;102040.31;;;6.41;89.32
64872;BME280;51351;51.450;6.614;2023-11-18T09:24:39;102035.28;;;6.38;88.92
64872;BME280;51351;51.450;6.614;2023-11-18T09:27:05;102033.53;;;6.39;88.63
64872;BME280;51351;51.450;6.614;2023-11-18T09:29:42;102025.91;;;6.36;88.37
64872;BME280;51351;51.450;6.614;2023-11-18T09:32:54;102038.72;;;6.39;88.32
64872;BME280;51351;51.450;6.614;2023-11-18T09:35:25;102033.53;;;6.39;88.43
64872;BME280;51351;51.450;6.614;2023-11-18T09:38:08;102030.19;;;6.37;88.43
64872;BME280;51351;51.450;6.614;2023-11-18T09:40:54;102031.34;;;6.31;88.73
64872;BME280;51351;51.450;6.614;2023-11-18T09:43:24;102033.94;;;6.31;88.72
64872;BME280;51351;51.450;6.614;2023-11-18T09:49:27;102049.34;;;6.34;88.94
64872;BME280;51351;51.450;6.614;2023-11-18T09:51:58;102038.03;;;6.35;88.47
64872;BME280;51351;51.450;6.614;2023-11-18T09:57:33;102038.28;;;6.48;88.94
64872;BME280;51351;51.450;6.614;2023-11-18T10:00:05;102019.69;;;6.55;88.68
64872;BME280;51351;51.450;6.614;2023-11-18T10:02:51;102012.66;;;6.57;87.95
64872;BME280;51351;51.450;6.614;2023-11-18T10:05:17;102025.41;;;6.62;88.22
64872;BME280;51351;51.450;6.614;2023-11-18T10:07:49;102011.19;;;6.69;88.33
64872;BME280;51351;51.450;6.614;2023-11-18T10:10:15;102010.31;;;6.68;87.62
64872;BME280;51351;51.450;6.614;2023-11-18T10:12:48;101998.03;;;6.72;87.96
64872;BME280;51351;51.450;6.614;2023-11-18T10:15:21;101979.94;;;6.70;87.76
64872;BME280;51351;51.450;6.614;2023-11-18T10:17:50;101967.66;;;6.74;88.29
64872;BME280;51351;51.450;6.614;2023-11-18T10:20:44;101964.13;;;6.75;87.77
64872;BME280;51351;51.450;6.614;2023-11-18T10:23:10;101967.13;;;6.83;87.95
64872;BME280;51351;51.450;6.614;2023-11-18T10:25:36;101951.53;;;6.83;87.52
64872;BME280;51351;51.450;6.614;2023-11-18T10:28:07;101942.78;;;6.85;87.15
64872;BME280;51351;51.450;6.614;2023-11-18T10:30:44;101942.56;;;6.88;87.30
64872;BME280;51351;51.450;6.614;2023-11-18T10:33:18;101943.50;;;6.87;87.65
64872;BME280;51351;51.450;6.614;2023-11-18T10:35:50;101951.31;;;6.87;87.86
64872;BME280;51351;51.450;6.614;2023-11-18T10:38:21;101950.56;;;6.85;87.78
64872;BME280;51351;51.450;6.614;2023-11-18T10:40:52;101946.34;;;6.83;87.63
64872;BME280;51351;51.450;6.614;2023-11-18T10:43:17;101935.16;;;6.82;88.05
64872;BME280;51351;51.450;6.614;2023-11-18T10:45:43;101931.63;;;6.83;87.90
64872;BME280;51351;51.450;6.614;2023-11-18T10:48:12;101925.56;;;6.83;87.52
64872;BME280;51351;51.450;6.614;2023-11-18T10:51:05;101928.09;;;6.84;87.95
64872;BME280;51351;51.450;6.614;2023-11-18T10:53:31;101919.50;;;6.84;87.65
64872;BME280;51351;51.450;6.614;2023-11-18T10:55:58;101908.81;;;6.88;87.67
64872;BME280;51351;51.450;6.614;2023-11-18T10:58:23;101908.81;;;6.88;87.71
64872;BME280;51351;51.450;6.614;2023-11-18T11:00:50;101905.25;;;6.91;87.89
64872;BME280;51351;51.450;6.614;2023-11-18T11:03:21;101882.50;;;6.94;88.05
64872;BME280;51351;51.450;6.614;2023-11-18T11:05:49;101881.53;;;6.97;87.92
64872;BME280;51351;51.450;6.614;2023-11-18T11:08:14;101876.13;;;7.00;87.62
64872;BME280;51351;51.450;6.614;2023-11-18T11:10:41;101886.25;;;7.04;87.97
64872;BME280;51351;51.450;6.614;2023-11-18T11:13:07;101898.44;;;7.04;88.11
64872;BME280;51351;51.450;6.614;2023-11-18T11:15:33;101900.94;;;7.05;88.50
64872;BME280;51351;51.450;6.614;2023-11-18T11:18:21;101897.34;;;7.08;88.52
64872;BME280;51351;51.450;6.614;2023-11-18T11:29:12;101909.97;;;7.14;89.10
64872;BME280;51351;51.450;6.614;2023-11-18T11:31:39;101904.69;;;7.15;89.47
64872;BME280;51351;51.450;6.614;2023-11-18T11:34:16;101893.38;;;7.16;89.40
64872;BME280;51351;51.450;6.614;2023-11-18T11:36:46;101882.91;;;7.18;89.07
64872;BME280;51351;51.450;6.614;2023-11-18T11:39:11;101871.56;;;7.19;89.11
64872;BME280;51351;51.450;6.614;2023-11-18T11:41:50;101872.25;;;7.22;89.70
64872;BME280;51351;51.450;6.614;2023-11-18T11:44:21;101874.09;;;7.20;89.04
64872;BME280;51351;51.450;6.614;2023-11-18T11:46:53;101873.81;;;7.25;89.89
64872;BME280;51351;51.450;6.614;2023-11-18T11:49:20;101872.88;;;7.26;89.75
64872;BME280;51351;51.450;6.614;2023-11-18T11:51:52;101876.25;;;7.28;89.91
64872;BME280;51351;51.450;6.614;2023-11-18T11:54:29;101882.38;;;7.27;89.79
64872;BME280;51351;51.450;6.614;2023-11-18T11:57:01;101881.63;;;7.25;89.97
64872;BME280;51351;51.450;6.614;2023-11-18T12:02:20;101873.25;;;7.20;90.07
64872;BME280;51351;51.450;6.614;2023-11-18T12:04:49;101863.88;;;7.17;90.66
64872;BME280;51351;51.450;6.614;2023-11-18T12:07:22;101857.94;;;7.15;90.62
64872;BME280;51351;51.450;6.614;2023-11-18T12:09:55;101831.09;;;7.15;90.31
64872;BME280;51351;51.450;6.614;2023-11-18T12:12:23;101823.31;;;7.15;90.47
64872;BME280;51351;51.450;6.614;2023-11-18T12:14:53;101819.94;;;7.13;91.13
64872;BME280;51351;51.450;6.614;2023-11-18T12:17:21;101799.25;;;7.11;91.28
64872;BME280;51351;51.450;6.614;2023-11-18T12:19:47;101796.75;;;7.10;91.39
64872;BME280;51351;51.450;6.614;2023-11-18T12:30:04;101760.00;;;7.02;92.19
64872;BME280;51351;51.450;6.614;2023-11-18T12:35:19;101751.44;;;7.00;92.60
64872;BME280;51351;51.450;6.614;2023-11-18T12:43:29;101749.59;;;7.02;92.75
64872;BME280;51351;51.450;6.614;2023-11-18T12:48:31;101726.91;;;7.05;92.98
64872;BME280;51351;51.450;6.614;2023-11-18T12:50:57;101698.97;;;7.09;92.75
64872;BME280;51351;51.450;6.614;2023-11-18T12:53:23;101683.28;;;7.10;92.64
64872;BME280;51351;51.450;6.614;2023-11-18T12:55:53;101675.22;;;7.15;92.99
64872;BME280;51351;51.450;6.614;2023-11-18T12:58:19;101670.88;;;7.15;93.06
64872;BME280;51351;51.450;6.614;2023-11-18T13:00:44;101668.81;;;7.20;92.95
64872;BME280;51351;51.450;6.614;2023-11-18T13:03:10;101656.47;;;7.24;92.59
64872;BME280;51351;51.450;6.614;2023-11-18T13:05:36;101660.47;;;7.29;92.47
64872;BME280;51351;51.450;6.614;2023-11-18T13:08:02;101659.44;;;7.32;92.21
64872;BME280;51351;51.450;6.614;2023-11-18T13:10:27;101648.94;;;7.33;92.31
64872;BME280;51351;51.450;6.614;2023-11-18T13:12:53;101625.56;;;7.33;92.37
64872;BME280;51351;51.450;6.614;2023-11-18T13:15:19;101613.69;;;7.29;92.00
64872;BME280;51351;51.450;6.614;2023-11-18T13:20:53;101586.03;;;7.28;91.96
64872;BME280;51351;51.450;6.614;2023-11-18T13:23:18;101577.41;;;7.28;92.33
64872;BME280;51351;51.450;6.614;2023-11-18T13:25:44;101578.25;;;7.28;92.50
64872;BME280;51351;51.450;6.614;2023-11-18T13:28:09;101567.00;;;7.28;92.43
64872;BME280;51351;51.450;6.614;2023-11-18T13:30:35;101567.84;;;7.28;92.65
64872;BME280;51351;51.450;6.614;2023-11-18T13:33:00;101568.75;;;7.27;92.55
64872;BME280;51351;51.450;6.614;2023-11-18T13:35:26;101556.72;;;7.26;92.58
64872;BME280;51351;51.450;6.614;2023-11-18T13:37:53;101543.72;;;7.26;92.65
64872;BME280;51351;51.450;6.614;2023-11-18T13:40:19;101547.25;;;7.25;92.67
64872;BME280;51351;51.450;6.614;2023-11-18T13:42:44;101556.72;;;7.26;93.03
64872;BME280;51351;51.450;6.614;2023-11-18T13:45:12;101555.97;;;7.24;93.15
64872;BME280;51351;51.450;6.614;2023-11-18T13:47:40;101553.47;;;7.23;93.04
64872;BME280;51351;51.450;6.614;2023-11-18T13:50:08;101544.09;;;7.20;93.34
64872;BME280;51351;51.450;6.614;2023-11-18T13:52:34;101538.09;;;7.20;93.29
64872;BME280;51351;51.450;6.614;2023-11-18T13:54:59;101524.16;;;7.21;93.39
64872;BME280;51351;51.450;6.614;2023-11-18T13:57:25;101508.66;;;7.19;93.35
64872;BME280;51351;51.450;6.614;2023-11-18T13:59:51;101498.06;;;7.22;93.18
64872;BME280;51351;51.450;6.614;2023-11-18T14:02:16;101474.69;;;7.22;93.36
64872;BME280;51351;51.450;6.614;2023-11-18T14:04:42;101461.59;;;7.24;93.12